createdAt,value
2023-04-05T00:02:21.153Z,45.10
2023-04-05T00:04:52.179Z,44.90
2023-04-05T00:07:21.542Z,44.90
2023-04-05T00:09:48.986Z,44.80
2023-04-05T00:12:16.081Z,45.00
2023-04-05T00:14:42.915Z,45.10
2023-04-05T00:17:11.205Z,45.20
2023-04-05T00:19:39.423Z,45.20
2023-04-05T00:22:06.240Z,45.10
2023-04-05T00:24:34.138Z,45.10
2023-04-05T00:27:01.352Z,45.00
2023-04-05T00:29:28.217Z,45.10
2023-04-05T00:31:56.053Z,45.80
2023-04-05T00:34:22.994Z,45.40
2023-04-05T00:36:49.831Z,45.30
2023-04-05T00:39:16.573Z,45.30
2023-04-05T00:41:46.319Z,45.40
2023-04-05T00:44:14.524Z,45.40
2023-04-05T00:46:42.204Z,45.30
2023-04-05T00:49:09.272Z,45.30
2023-04-05T00:51:36.688Z,45.80
2023-04-05T00:54:03.678Z,45.30
2023-04-05T00:56:30.845Z,45.30
2023-04-05T00:58:57.748Z,45.20
2023-04-05T01:01:26.518Z,45.30
2023-04-05T01:03:55.708Z,45.40
2023-04-05T01:06:41.694Z,46.10
2023-04-05T01:09:37.703Z,45.70
2023-04-05T01:12:09.378Z,45.70
2023-04-05T01:14:50.549Z,45.70
2023-04-05T01:17:22.335Z,45.90
2023-04-05T01:19:54.342Z,45.80
2023-04-05T01:22:42.224Z,45.80
2023-04-05T01:25:30.878Z,45.80
2023-04-05T01:28:16.660Z,45.80
2023-04-05T01:30:49.505Z,45.90
2023-04-05T01:33:16.434Z,45.70
2023-04-05T01:36:10.370Z,46.00
2023-04-05T01:38:39.065Z,46.00
2023-04-05T01:41:05.919Z,46.10
2023-04-05T01:43:32.602Z,46.10
2023-04-05T01:45:59.557Z,46.20
2023-04-05T01:48:26.357Z,46.20
2023-04-05T01:50:53.159Z,46.30
2023-04-05T01:53:19.942Z,46.30
2023-04-05T01:55:47.029Z,46.30
2023-04-05T01:58:13.884Z,46.30
2023-04-05T02:00:41.070Z,46.50
2023-04-05T02:03:07.997Z,46.50
2023-04-05T02:05:34.870Z,46.60
2023-04-05T02:08:01.708Z,46.70
2023-04-05T02:10:28.469Z,47.20
2023-04-05T02:12:55.445Z,47.20
2023-04-05T02:15:22.405Z,47.50
2023-04-05T02:17:49.228Z,47.60
2023-04-05T02:20:16.662Z,48.10
2023-04-05T02:22:45.493Z,47.50
2023-04-05T02:25:13.079Z,47.50
2023-04-05T02:27:40.438Z,47.40
2023-04-05T02:30:07.735Z,47.60
2023-04-05T02:32:34.526Z,47.60
2023-04-05T02:35:01.519Z,47.70
2023-04-05T02:37:28.450Z,47.60
2023-04-05T02:39:55.240Z,47.60
2023-04-05T02:42:22.056Z,47.80
2023-04-05T02:44:48.882Z,47.80
2023-04-05T02:47:21.287Z,47.80
2023-04-05T02:49:48.944Z,47.70
2023-04-05T02:52:16.360Z,47.70
2023-04-05T02:54:43.512Z,47.60
2023-04-05T02:57:13.431Z,47.80
2023-04-05T02:59:40.747Z,47.90
2023-04-05T03:02:07.501Z,48.00
2023-04-05T03:04:37.072Z,48.20
2023-04-05T03:07:04.825Z,48.40
2023-04-05T03:09:34.743Z,48.40
2023-04-05T03:12:02.712Z,48.40
2023-04-05T03:14:30.792Z,48.30
2023-04-05T03:16:57.975Z,48.30
2023-04-05T03:19:26.345Z,48.20
2023-04-05T03:21:53.492Z,48.20
2023-04-05T03:24:20.736Z,48.00
2023-04-05T03:26:47.835Z,47.90
2023-04-05T03:29:14.827Z,48.00
2023-04-05T03:31:41.594Z,48.10
2023-04-05T03:34:08.436Z,48.10
2023-04-05T03:36:41.813Z,48.10
2023-04-05T03:39:10.497Z,48.10
2023-04-05T03:41:38.030Z,48.10
2023-04-05T03:44:04.998Z,48.10
2023-04-05T03:46:32.035Z,48.20
2023-04-05T03:48:59.470Z,48.10
2023-04-05T03:51:27.178Z,48.10
2023-04-05T03:53:53.901Z,48.10
2023-04-05T03:56:21.032Z,48.00
2023-04-05T03:58:47.970Z,48.10
2023-04-05T04:01:15.561Z,48.00
2023-04-05T04:03:42.546Z,48.20
2023-04-05T04:06:09.394Z,48.30
2023-04-05T04:08:36.369Z,48.30
2023-04-05T04:11:03.421Z,48.50
2023-04-05T04:13:30.238Z,48.60
2023-04-05T04:15:57.067Z,48.60
2023-04-05T04:18:23.972Z,48.40
2023-04-05T04:20:52.364Z,48.40
2023-04-05T04:23:19.473Z,48.50
2023-04-05T04:25:46.718Z,48.60
2023-04-05T04:28:13.677Z,48.80
2023-04-05T04:30:43.588Z,48.70
2023-04-05T04:33:10.506Z,48.70
2023-04-05T04:35:40.107Z,48.70
2023-04-05T04:38:08.202Z,48.60
2023-04-05T04:40:39.358Z,48.60
2023-04-05T04:43:10.274Z,48.70
2023-04-05T04:45:38.075Z,48.60
2023-04-05T04:48:05.282Z,48.60
2023-04-05T04:50:32.323Z,48.60
2023-04-05T04:52:59.438Z,48.60
2023-04-05T04:55:27.561Z,48.70
2023-04-05T04:57:54.866Z,48.70
2023-04-05T05:00:22.564Z,48.80
2023-04-05T05:02:50.880Z,49.00
2023-04-05T05:05:17.871Z,49.10
2023-04-05T05:07:44.717Z,49.20
2023-04-05T05:10:11.678Z,49.30
2023-04-05T05:12:38.888Z,49.40
2023-04-05T05:15:06.285Z,49.40
2023-04-05T05:17:34.822Z,49.40
2023-04-05T05:20:05.343Z,49.40
2023-04-05T05:22:32.085Z,49.50
2023-04-05T05:24:58.912Z,49.70
2023-04-05T05:27:26.680Z,49.70
2023-04-05T05:29:53.411Z,49.80
2023-04-05T05:32:20.188Z,50.40
2023-04-05T05:34:48.785Z,49.90
2023-04-05T05:37:17.197Z,49.90
2023-04-05T05:39:46.756Z,49.80
2023-04-05T05:42:13.694Z,49.80
2023-04-05T05:44:40.608Z,50.00
2023-04-05T05:47:07.303Z,50.10
2023-04-05T05:49:34.169Z,50.10
2023-04-05T05:52:01.125Z,50.10
2023-04-05T05:54:28.036Z,50.10
2023-04-05T05:56:55.155Z,50.30
2023-04-05T05:59:22.136Z,50.20
2023-04-05T06:01:51.246Z,50.20
2023-04-05T06:04:19.324Z,50.30
2023-04-05T06:06:47.848Z,50.30
2023-04-05T06:09:17.883Z,50.10
2023-04-05T06:11:55.964Z,50.00
2023-04-05T06:14:23.897Z,50.10
2023-04-05T06:16:50.782Z,50.20
2023-04-05T06:19:17.632Z,50.10
2023-04-05T06:21:44.395Z,50.00
2023-04-05T06:24:11.288Z,49.70
2023-04-05T06:26:38.096Z,49.70
2023-04-05T06:29:04.969Z,49.60
2023-04-05T06:31:32.966Z,49.50
2023-04-05T06:33:59.939Z,49.30
2023-04-05T06:36:32.561Z,49.30
2023-04-05T06:38:59.696Z,49.30
2023-04-05T06:41:27.822Z,49.20
2023-04-05T06:43:55.122Z,49.00
2023-04-05T06:46:22.172Z,48.70
2023-04-05T06:48:50.101Z,48.60
2023-04-05T06:51:17.094Z,48.20
2023-04-05T06:53:43.936Z,48.20
2023-04-05T06:56:11.088Z,48.40
2023-04-05T06:58:37.964Z,48.50
2023-04-05T07:01:05.334Z,48.20
2023-04-05T07:03:32.702Z,47.90
2023-04-05T07:06:00.028Z,47.80
2023-04-05T07:08:27.619Z,47.70
2023-04-05T07:10:54.510Z,47.50
2023-04-05T07:13:22.183Z,47.30
2023-04-05T07:15:48.982Z,47.00
2023-04-05T07:18:15.980Z,47.20
2023-04-05T07:20:43.089Z,47.10
2023-04-05T07:23:10.199Z,46.40
2023-04-05T07:25:37.031Z,46.60
2023-04-05T07:28:03.813Z,46.90
2023-04-05T07:30:32.122Z,46.90
2023-04-05T07:32:59.404Z,46.40
2023-04-05T07:35:26.413Z,46.40
2023-04-05T07:37:53.367Z,45.30
2023-04-05T07:40:20.319Z,45.30
2023-04-05T07:42:47.338Z,45.30
2023-04-05T07:45:14.260Z,45.70
2023-04-05T07:47:41.223Z,45.30
2023-04-05T07:50:10.171Z,45.60
2023-04-05T07:52:36.933Z,44.80
2023-04-05T07:55:03.899Z,44.60
2023-04-05T07:57:30.694Z,44.50
2023-04-05T07:59:57.537Z,44.70
2023-04-05T08:02:24.364Z,44.80
2023-04-05T08:04:51.154Z,45.00
2023-04-05T08:07:17.938Z,45.20
2023-04-05T08:09:44.773Z,44.60
2023-04-05T08:12:11.765Z,44.70
2023-04-05T08:14:38.737Z,44.40
2023-04-05T08:17:05.764Z,44.00
2023-04-05T08:19:32.683Z,43.20
2023-04-05T08:21:59.642Z,43.10
2023-04-05T08:24:26.606Z,42.90
2023-04-05T08:26:53.436Z,43.20
2023-04-05T08:29:20.202Z,42.90
2023-04-05T08:31:47.259Z,43.20
2023-04-05T08:34:14.240Z,43.00
2023-04-05T08:36:41.234Z,43.40
2023-04-05T08:39:08.603Z,43.60
2023-04-05T08:41:42.212Z,43.10
2023-04-05T08:44:10.288Z,43.60
2023-04-05T08:46:37.069Z,43.60
2023-04-05T08:49:08.233Z,43.10
2023-04-05T08:51:41.307Z,42.20
2023-04-05T08:54:08.207Z,41.60
2023-04-05T08:56:35.893Z,41.50
2023-04-05T08:59:06.177Z,41.50
2023-04-05T09:01:34.268Z,41.20
2023-04-05T09:04:02.851Z,41.90
2023-04-05T09:06:29.652Z,41.90
2023-04-05T09:08:57.432Z,42.30
2023-04-05T09:11:24.299Z,42.30
2023-04-05T09:13:51.094Z,42.30
2023-04-05T09:16:17.929Z,42.30
2023-04-05T09:18:44.829Z,42.30
2023-04-05T09:21:11.654Z,42.40
2023-04-05T09:23:38.481Z,42.60
2023-04-05T09:26:18.849Z,42.30
2023-04-05T09:28:45.730Z,41.90
2023-04-05T09:31:33.361Z,42.00
2023-04-05T09:34:04.289Z,41.50
2023-04-05T09:36:34.328Z,40.60
2023-04-05T09:39:08.081Z,40.30
2023-04-05T09:41:35.567Z,41.30
2023-04-05T09:44:02.510Z,40.60
2023-04-05T09:46:31.292Z,38.90
2023-04-05T09:48:58.369Z,39.50
2023-04-05T09:51:25.102Z,39.70
2023-04-05T09:54:08.615Z,39.90
2023-04-05T09:56:36.772Z,39.20
2023-04-05T09:59:11.182Z,39.10
2023-04-05T10:01:41.469Z,38.90
2023-04-05T10:04:08.723Z,38.00
2023-04-05T10:06:42.139Z,37.20
2023-04-05T10:09:10.989Z,37.50
2023-04-05T10:11:38.441Z,37.70
2023-04-05T10:14:06.847Z,39.00
2023-04-05T10:16:43.856Z,38.80
2023-04-05T10:19:16.480Z,38.60
2023-04-05T10:21:43.279Z,38.40
2023-04-05T10:24:16.809Z,38.10
2023-04-05T10:26:54.730Z,37.00
2023-04-05T10:29:30.740Z,37.40
2023-04-05T10:32:24.444Z,36.90
2023-04-05T10:34:58.029Z,38.30
2023-04-05T10:37:36.069Z,38.80
2023-04-05T10:40:04.244Z,37.80
2023-04-05T10:42:51.630Z,38.20
2023-04-05T10:45:19.909Z,37.90
2023-04-05T10:47:54.974Z,38.10
2023-04-05T10:50:26.081Z,37.50
2023-04-05T10:52:53.638Z,37.70
2023-04-05T10:55:21.910Z,36.90
2023-04-05T10:57:48.847Z,38.00
2023-04-05T11:00:16.077Z,37.30
2023-04-05T11:02:43.022Z,37.40
2023-04-05T11:05:33.031Z,36.20
2023-04-05T11:08:07.054Z,35.00
2023-04-05T11:10:37.926Z,35.70
2023-04-05T11:13:06.443Z,36.20
2023-04-05T11:15:34.349Z,36.70
2023-04-05T11:18:12.774Z,37.20
2023-04-05T11:21:07.393Z,36.80
2023-04-05T11:23:35.122Z,35.90
2023-04-05T11:26:05.778Z,35.90
2023-04-05T11:28:40.680Z,35.90
2023-04-05T11:31:20.756Z,36.50
2023-04-05T11:33:56.907Z,36.50
2023-04-05T11:36:33.822Z,37.10
2023-04-05T11:39:19.114Z,36.30
2023-04-05T11:42:06.472Z,35.60
2023-04-05T11:44:46.924Z,36.10
2023-04-05T11:47:14.197Z,36.50
2023-04-05T11:49:42.800Z,36.60
2023-04-05T11:52:17.552Z,36.50
2023-04-05T11:54:47.603Z,36.20
2023-04-05T11:57:23.764Z,36.60
2023-04-05T11:59:52.120Z,36.30
2023-04-05T12:02:19.405Z,35.40
2023-04-05T12:04:53.387Z,36.20
2023-04-05T12:07:20.475Z,36.80
2023-04-05T12:10:04.138Z,37.50
2023-04-05T12:12:38.882Z,37.40
2023-04-05T12:15:08.639Z,37.40
2023-04-05T12:17:54.752Z,37.20
2023-04-05T12:20:25.480Z,35.40
2023-04-05T12:22:53.794Z,36.60
2023-04-05T12:25:21.017Z,37.10
2023-04-05T12:27:47.940Z,36.50
2023-04-05T12:30:21.456Z,37.10
2023-04-05T12:32:52.340Z,37.00
2023-04-05T12:35:31.887Z,37.10
2023-04-05T12:37:59.594Z,37.20
2023-04-05T12:40:26.412Z,37.30
2023-04-05T12:42:53.202Z,37.30
2023-04-05T12:45:19.987Z,37.10
2023-04-05T12:48:08.220Z,37.70
2023-04-05T12:50:35.444Z,36.80
2023-04-05T12:53:05.908Z,36.70
2023-04-05T12:55:32.890Z,37.60
2023-04-05T12:58:00.590Z,37.00
2023-04-05T13:00:28.872Z,36.80
2023-04-05T13:02:58.203Z,36.90
2023-04-05T13:05:29.305Z,36.40
2023-04-05T13:07:56.363Z,36.60
2023-04-05T13:10:24.220Z,36.40
2023-04-05T13:12:51.047Z,36.20
2023-04-05T13:15:18.080Z,35.90
2023-04-05T13:17:50.321Z,35.20
2023-04-05T13:20:19.785Z,34.50
2023-04-05T13:22:46.773Z,34.70
2023-04-05T13:25:14.460Z,35.10
2023-04-05T13:27:41.284Z,34.80
2023-04-05T13:30:08.528Z,34.10
2023-04-05T13:32:35.680Z,34.40
2023-04-05T13:35:02.517Z,34.10
2023-04-05T13:37:29.339Z,34.70
2023-04-05T13:39:56.122Z,34.20
2023-04-05T13:42:24.097Z,33.90
2023-04-05T13:44:51.642Z,33.90
2023-04-05T13:47:18.719Z,32.80
2023-04-05T13:49:46.092Z,33.30
2023-04-05T13:52:13.066Z,32.30
2023-04-05T13:54:39.963Z,32.00
2023-04-05T13:57:06.975Z,31.90
2023-04-05T13:59:33.909Z,32.50
2023-04-05T14:02:01.045Z,32.40
2023-04-05T14:04:28.600Z,31.70
2023-04-05T14:06:55.478Z,32.40
2023-04-05T14:09:22.265Z,32.70
2023-04-05T14:11:49.075Z,32.40
2023-04-05T14:14:15.933Z,32.10
2023-04-05T14:16:43.090Z,31.60
2023-04-05T14:19:10.102Z,31.60
2023-04-05T14:21:37.305Z,30.30
2023-04-05T14:24:04.195Z,31.50
2023-04-05T14:26:31.299Z,31.60
2023-04-05T14:28:58.077Z,31.60
2023-04-05T14:31:27.586Z,31.40
2023-04-05T14:33:54.424Z,31.10
2023-04-05T14:36:21.403Z,31.50
2023-04-05T14:38:48.254Z,31.10
2023-04-05T14:41:15.094Z,32.00
2023-04-05T14:43:42.020Z,32.20
2023-04-05T14:46:08.952Z,31.00
2023-04-05T14:48:37.427Z,31.80
2023-04-05T14:51:04.617Z,32.10
2023-04-05T14:53:31.412Z,31.20
2023-04-05T14:55:58.254Z,30.80
2023-04-05T14:58:25.112Z,31.30
2023-04-05T15:00:51.989Z,30.50
2023-04-05T15:03:19.786Z,30.50
2023-04-05T15:05:49.633Z,31.00
2023-04-05T15:08:16.485Z,30.90
2023-04-05T15:10:43.635Z,31.10
2023-04-05T15:13:10.884Z,30.30
2023-04-05T15:15:37.819Z,30.70
2023-04-05T15:18:05.025Z,30.80
2023-04-05T15:20:32.025Z,30.90
2023-04-05T15:22:58.821Z,30.10
2023-04-05T15:25:25.685Z,30.50
2023-04-05T15:27:54.359Z,30.00
2023-04-05T15:30:21.966Z,30.30
2023-04-05T15:32:48.794Z,30.60
2023-04-05T15:35:15.671Z,31.00
2023-04-05T15:37:42.668Z,30.50
2023-04-05T15:40:09.877Z,30.40
2023-04-05T15:42:36.636Z,30.30
2023-04-05T15:45:03.594Z,31.00
2023-04-05T15:47:30.571Z,31.00
2023-04-05T15:49:57.338Z,30.90
2023-04-05T15:52:24.116Z,31.10
2023-04-05T15:54:51.008Z,31.30
2023-04-05T15:57:17.923Z,31.40
2023-04-05T15:59:44.839Z,31.70
2023-04-05T16:02:11.698Z,31.20
2023-04-05T16:04:39.381Z,31.40
2023-04-05T16:07:07.682Z,31.30
2023-04-05T16:09:34.721Z,31.20
2023-04-05T16:12:01.626Z,31.70
2023-04-05T16:14:28.462Z,31.90
2023-04-05T16:16:55.594Z,32.10
2023-04-05T16:19:23.041Z,32.10
2023-04-05T16:21:50.329Z,32.00
2023-04-05T16:24:17.167Z,31.90
2023-04-05T16:26:43.930Z,32.10
2023-04-05T16:29:10.741Z,32.80
2023-04-05T16:31:38.118Z,32.50
2023-04-05T16:34:04.983Z,32.90
2023-04-05T16:36:31.794Z,32.60
2023-04-05T16:38:58.645Z,32.80
2023-04-05T16:41:25.656Z,32.80
2023-04-05T16:43:52.437Z,32.50
2023-04-05T16:46:19.464Z,32.60
2023-04-05T16:48:46.631Z,32.80
2023-04-05T16:51:13.452Z,33.20
2023-04-05T16:53:40.561Z,33.00
2023-04-05T16:56:07.508Z,32.90
2023-04-05T16:58:34.210Z,33.40
2023-04-05T17:01:01.554Z,33.40
2023-04-05T17:03:28.484Z,33.50
2023-04-05T17:05:55.841Z,33.30
2023-04-05T17:08:23.048Z,33.60
2023-04-05T17:10:50.356Z,33.70
2023-04-05T17:13:18.130Z,34.00
2023-04-05T17:15:45.358Z,34.10
2023-04-05T17:18:12.443Z,34.00
2023-04-05T17:20:39.346Z,34.10
2023-04-05T17:23:06.168Z,34.50
2023-04-05T17:25:33.149Z,34.40
2023-04-05T17:28:00.101Z,34.60
2023-04-05T17:30:27.189Z,34.70
2023-04-05T17:32:54.200Z,34.80
2023-04-05T17:35:21.212Z,34.80
2023-04-05T17:37:48.406Z,34.80
2023-04-05T17:40:16.210Z,34.90
2023-04-05T17:42:43.148Z,35.30
2023-04-05T17:45:10.389Z,35.20
2023-04-05T17:47:37.622Z,35.40
2023-04-05T17:50:04.898Z,35.40
2023-04-05T17:52:31.851Z,35.50
2023-04-05T17:54:58.736Z,35.60
2023-04-05T17:57:25.774Z,35.70
2023-04-05T17:59:52.849Z,36.00
2023-04-05T18:02:19.838Z,35.90
2023-04-05T18:04:46.718Z,36.10
2023-04-05T18:07:13.968Z,36.20
2023-04-05T18:09:42.520Z,36.20
2023-04-05T18:12:09.835Z,36.40
2023-04-05T18:14:37.089Z,36.70
2023-04-05T18:17:07.732Z,36.70
2023-04-05T18:19:34.811Z,36.60
2023-04-05T18:22:01.653Z,36.50
2023-04-05T18:24:29.412Z,36.60
2023-04-05T18:26:56.367Z,37.30
2023-04-05T18:29:28.213Z,37.90
2023-04-05T18:31:56.121Z,37.90
2023-04-05T18:34:23.022Z,38.20
2023-04-05T18:36:49.925Z,38.70
2023-04-05T18:39:16.856Z,38.90
2023-04-05T18:41:43.640Z,39.00
2023-04-05T18:44:10.470Z,39.10
2023-04-05T18:46:38.576Z,38.90
2023-04-05T18:49:05.676Z,39.00
2023-04-05T18:51:33.295Z,39.20
2023-04-05T18:54:00.283Z,39.20
2023-04-05T18:56:27.240Z,39.30
2023-04-05T18:58:54.156Z,39.60
2023-04-05T19:01:21.424Z,39.80
2023-04-05T19:03:49.033Z,39.80
2023-04-05T19:06:16.147Z,39.80
2023-04-05T19:08:43.027Z,39.70
2023-04-05T19:11:12.496Z,39.80
2023-04-05T19:13:41.386Z,39.70
2023-04-05T19:16:08.305Z,40.00
2023-04-05T19:18:35.295Z,40.30
2023-04-05T19:21:02.255Z,40.60
2023-04-05T19:23:29.232Z,40.90
2023-04-05T19:25:56.313Z,40.90
2023-04-05T19:28:23.614Z,40.90
2023-04-05T19:30:51.056Z,40.80
2023-04-05T19:33:19.698Z,40.80
2023-04-05T19:35:48.010Z,40.80
2023-04-05T19:38:14.868Z,40.80
2023-04-05T19:40:42.387Z,40.80
2023-04-05T19:43:09.609Z,40.80
2023-04-05T19:45:36.729Z,41.10
2023-04-05T19:48:03.822Z,41.00
2023-04-05T19:50:40.591Z,41.30
2023-04-05T19:53:07.915Z,41.40
2023-04-05T19:55:38.363Z,41.40
2023-04-05T19:58:09.687Z,41.40
2023-04-05T20:00:43.992Z,41.40
2023-04-05T20:03:22.716Z,41.60
2023-04-05T20:05:49.517Z,41.80
2023-04-05T20:08:16.313Z,41.70
2023-04-05T20:10:47.671Z,41.90
2023-04-05T20:13:17.759Z,41.90
2023-04-05T20:15:49.710Z,41.90
2023-04-05T20:18:24.635Z,42.00
2023-04-05T20:20:53.762Z,42.10
2023-04-05T20:23:22.538Z,42.20
2023-04-05T20:25:50.469Z,42.30
2023-04-05T20:28:33.449Z,42.30
2023-04-05T20:31:00.516Z,42.50
2023-04-05T20:33:37.628Z,42.40
2023-04-05T20:36:11.193Z,42.50
2023-04-05T20:38:39.210Z,42.40
2023-04-05T20:41:06.074Z,42.60
2023-04-05T20:43:33.206Z,43.40
2023-04-05T20:46:01.078Z,43.00
2023-04-05T20:48:28.035Z,43.10
2023-04-05T20:50:54.981Z,43.10
2023-04-05T20:53:21.833Z,43.10
2023-04-05T20:55:48.879Z,43.10
2023-04-05T20:58:16.123Z,43.30
2023-04-05T21:00:42.982Z,43.50
2023-04-05T21:03:09.961Z,44.00
2023-04-05T21:05:36.845Z,43.60
2023-04-05T21:08:04.037Z,43.70
2023-04-05T21:10:30.940Z,43.80
2023-04-05T21:12:57.735Z,44.00
2023-04-05T21:15:24.666Z,44.10
2023-04-05T21:17:51.613Z,43.90
2023-04-05T21:20:18.407Z,43.80
2023-04-05T21:22:45.388Z,43.90
2023-04-05T21:25:12.131Z,44.10
2023-04-05T21:27:38.923Z,44.00
2023-04-05T21:30:06.228Z,44.10
2023-04-05T21:32:33.109Z,44.30
2023-04-05T21:34:59.975Z,44.40
2023-04-05T21:37:26.779Z,44.20
2023-04-05T21:39:53.531Z,44.00
2023-04-05T21:42:20.258Z,44.20
2023-04-05T21:44:47.041Z,44.30
2023-04-05T21:47:13.852Z,44.50
2023-04-05T21:49:41.879Z,44.70
2023-04-05T21:52:08.726Z,44.80
2023-04-05T21:54:35.606Z,44.80
2023-04-05T21:57:02.568Z,44.80
2023-04-05T21:59:29.396Z,45.00
2023-04-05T22:01:56.397Z,44.80
2023-04-05T22:04:25.269Z,44.60
2023-04-05T22:06:53.204Z,44.50
2023-04-05T22:09:20.008Z,44.70
2023-04-05T22:11:46.870Z,44.90
2023-04-05T22:14:13.777Z,45.20
2023-04-05T22:16:40.670Z,45.40
2023-04-05T22:19:08.021Z,45.30
2023-04-05T22:21:35.522Z,45.30
2023-04-05T22:24:02.238Z,45.40
2023-04-05T22:26:29.360Z,45.40
2023-04-05T22:28:56.311Z,45.50
2023-04-05T22:31:23.208Z,45.70
2023-04-05T22:33:50.440Z,45.60
2023-04-05T22:36:17.335Z,45.80
2023-04-05T22:38:44.201Z,45.90
2023-04-05T22:41:11.413Z,45.90
2023-04-05T22:43:38.238Z,45.70
2023-04-05T22:46:05.156Z,45.60
2023-04-05T22:48:32.319Z,45.40
2023-04-05T22:50:59.187Z,45.60
2023-04-05T22:53:25.930Z,45.80
2023-04-05T22:55:52.709Z,46.00
2023-04-05T22:58:21.837Z,46.00
2023-04-05T23:00:48.616Z,46.00
2023-04-05T23:03:15.502Z,46.20
2023-04-05T23:05:42.375Z,46.30
2023-04-05T23:08:09.115Z,46.40
2023-04-05T23:10:36.232Z,46.30
2023-04-05T23:13:03.053Z,46.50
2023-04-05T23:15:29.897Z,46.50
2023-04-05T23:17:56.900Z,46.60
2023-04-05T23:20:23.818Z,46.60
2023-04-05T23:22:50.754Z,46.70
2023-04-05T23:25:17.580Z,46.70
2023-04-05T23:27:44.341Z,46.80
2023-04-05T23:30:11.489Z,46.80
2023-04-05T23:32:38.276Z,46.60
2023-04-05T23:35:05.727Z,46.50
2023-04-05T23:37:32.543Z,46.60
2023-04-05T23:39:59.628Z,47.30
2023-04-05T23:42:26.622Z,46.90
2023-04-05T23:44:53.436Z,46.80
2023-04-05T23:47:20.155Z,46.90
2023-04-05T23:49:47.037Z,47.00
2023-04-05T23:52:13.918Z,47.20
2023-04-05T23:54:41.054Z,47.40
2023-04-05T23:57:07.851Z,47.70
2023-04-05T23:59:34.721Z,47.80
